RYR70SV EIDW-EGKK
Flight info
| Callsign | RYR70SV |
|---|---|
| Flight time | 0h 54m |
| Altitude | 31000 |
| Route | ENDEQ1E ENDEQ Q36 EPOXI L15 KEPAD L151 DISIT |
| Aircraft | B738/M-SDE2E3FGHIRWXY/LB1 |
Departure
| Time | 2026-05-06 18:48 |
|---|---|
| Airport | Dublin Airport (EIDW) |
Arrival
| Time | 2026-05-06 19:42 |
|---|---|
| Airport | London Gatwick Airport (EGKK) |
| Time | Latitude | Longitude | Altitude | Speed | Heading |
|---|---|---|---|---|---|
| 2026-05-06 18:26 | 53.43019 | -6.24941 | 226 ft | 0 kts | 6° |
| 2026-05-06 18:37 | 53.43016 | -6.24942 | 226 ft | 3 kts | 6° |
| 2026-05-06 18:37 | 53.42980 | -6.24949 | 225 ft | 4 kts | 4° |
| 2026-05-06 18:37 | 53.42956 | -6.24947 | 224 ft | 4 kts | 322° |
| 2026-05-06 18:38 | 53.42950 | -6.24935 | 224 ft | 1 kts | 276° |
| 2026-05-06 18:40 | 53.42951 | -6.24952 | 224 ft | 4 kts | 276° |
| 2026-05-06 18:40 | 53.42957 | -6.25061 | 224 ft | 12 kts | 276° |
| 2026-05-06 18:40 | 53.42965 | -6.25203 | 224 ft | 12 kts | 267° |
| 2026-05-06 18:41 | 53.42931 | -6.25338 | 224 ft | 14 kts | 233° |
| 2026-05-06 18:41 | 53.42862 | -6.25464 | 225 ft | 15 kts | 226° |
| 2026-05-06 18:41 | 53.42789 | -6.25587 | 228 ft | 15 kts | 225° |
| 2026-05-06 18:41 | 53.42703 | -6.25726 | 224 ft | 18 kts | 212° |
| 2026-05-06 18:42 | 53.42588 | -6.25691 | 225 ft | 17 kts | 161° |
| 2026-05-06 18:42 | 53.42490 | -6.25775 | 224 ft | 17 kts | 225° |
| 2026-05-06 18:42 | 53.42411 | -6.25909 | 224 ft | 16 kts | 225° |
| 2026-05-06 18:42 | 53.42335 | -6.26038 | 224 ft | 15 kts | 225° |
| 2026-05-06 18:43 | 53.42277 | -6.26186 | 226 ft | 17 kts | 251° |
| 2026-05-06 18:43 | 53.42270 | -6.26335 | 224 ft | 22 kts | 275° |
| 2026-05-06 18:43 | 53.42290 | -6.26707 | 224 ft | 24 kts | 275° |
| 2026-05-06 18:43 | 53.42305 | -6.26977 | 224 ft | 23 kts | 274° |
| 2026-05-06 18:44 | 53.42313 | -6.27150 | 224 ft | 22 kts | 275° |
| 2026-05-06 18:44 | 53.42327 | -6.27406 | 224 ft | 22 kts | 275° |
| 2026-05-06 18:44 | 53.42341 | -6.27654 | 224 ft | 21 kts | 275° |
| 2026-05-06 18:44 | 53.42355 | -6.27895 | 224 ft | 20 kts | 275° |
| 2026-05-06 18:45 | 53.42368 | -6.28128 | 224 ft | 20 kts | 275° |
| 2026-05-06 18:45 | 53.42381 | -6.28352 | 226 ft | 19 kts | 275° |
| 2026-05-06 18:45 | 53.42392 | -6.28571 | 224 ft | 19 kts | 275° |
| 2026-05-06 18:45 | 53.42404 | -6.28783 | 224 ft | 18 kts | 275° |
| 2026-05-06 18:46 | 53.42407 | -6.28988 | 224 ft | 17 kts | 255° |
| 2026-05-06 18:46 | 53.42311 | -6.29067 | 227 ft | 17 kts | 176° |
| 2026-05-06 18:46 | 53.42240 | -6.28956 | 234 ft | 8 kts | 98° |
| 2026-05-06 18:46 | 53.42239 | -6.28937 | 234 ft | 0 kts | 96° |
| 2026-05-06 18:47 | 53.42237 | -6.28902 | 235 ft | 17 kts | 96° |
| 2026-05-06 18:47 | 53.42204 | -6.28300 | 237 ft | 86 kts | 95° |
| 2026-05-06 18:47 | 53.42130 | -6.26953 | 231 ft | 143 kts | 95° |
| 2026-05-06 18:47 | 53.42021 | -6.25204 | 588 ft | 158 kts | 96° |
| 2026-05-06 18:48 | 53.41917 | -6.23310 | 1154 ft | 168 kts | 96° |
| 2026-05-06 18:48 | 53.41824 | -6.21354 | 1815 ft | 171 kts | 98° |
| 2026-05-06 18:48 | 53.41706 | -6.19350 | 2580 ft | 173 kts | 97° |
| 2026-05-06 18:48 | 53.41599 | -6.17343 | 3370 ft | 173 kts | 95° |
| 2026-05-06 18:49 | 53.41485 | -6.15289 | 4039 ft | 181 kts | 97° |
| 2026-05-06 18:49 | 53.41360 | -6.13091 | 4483 ft | 203 kts | 96° |
| 2026-05-06 18:49 | 53.41222 | -6.10605 | 4729 ft | 225 kts | 96° |
| 2026-05-06 18:49 | 53.41072 | -6.07905 | 4960 ft | 244 kts | 96° |
| 2026-05-06 18:50 | 53.40913 | -6.05003 | 5376 ft | 253 kts | 95° |
| 2026-05-06 18:50 | 53.40963 | -6.02001 | 5756 ft | 267 kts | 84° |
| 2026-05-06 18:50 | 53.41206 | -5.98812 | 6218 ft | 280 kts | 82° |
| 2026-05-06 18:50 | 53.41471 | -5.95579 | 6976 ft | 283 kts | 83° |
| 2026-05-06 18:51 | 53.41726 | -5.92278 | 7807 ft | 285 kts | 83° |
| 2026-05-06 18:51 | 53.41964 | -5.88952 | 8592 ft | 289 kts | 83° |
| 2026-05-06 18:51 | 53.42193 | -5.85621 | 9355 ft | 293 kts | 84° |
| 2026-05-06 18:51 | 53.42423 | -5.82196 | 10102 ft | 297 kts | 84° |
| 2026-05-06 18:52 | 53.42658 | -5.78716 | 10803 ft | 302 kts | 83° |
| 2026-05-06 18:52 | 53.42900 | -5.75170 | 11463 ft | 310 kts | 83° |
| 2026-05-06 18:52 | 53.43155 | -5.71446 | 11662 ft | 333 kts | 83° |
| 2026-05-06 18:52 | 53.43425 | -5.67479 | 12027 ft | 349 kts | 84° |
| 2026-05-06 18:53 | 53.43700 | -5.63432 | 12668 ft | 356 kts | 84° |
| 2026-05-06 18:53 | 53.43982 | -5.59270 | 13436 ft | 360 kts | 84° |
| 2026-05-06 18:53 | 53.44264 | -5.55066 | 14166 ft | 365 kts | 84° |
| 2026-05-06 18:53 | 53.44547 | -5.50800 | 14891 ft | 368 kts | 84° |
| 2026-05-06 18:54 | 53.44667 | -5.46540 | 15625 ft | 371 kts | 91° |
| 2026-05-06 18:54 | 53.44547 | -5.42186 | 16362 ft | 374 kts | 94° |
| 2026-05-06 18:54 | 53.44368 | -5.37807 | 17072 ft | 378 kts | 94° |
| 2026-05-06 18:54 | 53.44195 | -5.33363 | 17803 ft | 382 kts | 94° |
| 2026-05-06 18:55 | 53.44045 | -5.28932 | 18476 ft | 386 kts | 93° |
| 2026-05-06 18:55 | 53.43913 | -5.24418 | 19123 ft | 389 kts | 92° |
| 2026-05-06 18:55 | 53.43786 | -5.19869 | 19791 ft | 391 kts | 92° |
| 2026-05-06 18:55 | 53.43659 | -5.15304 | 20447 ft | 393 kts | 92° |
| 2026-05-06 18:56 | 53.43528 | -5.10698 | 21090 ft | 395 kts | 92° |
| 2026-05-06 18:56 | 53.43395 | -5.06061 | 21698 ft | 399 kts | 92° |
| 2026-05-06 18:56 | 53.43260 | -5.01445 | 22290 ft | 402 kts | 92° |
| 2026-05-06 18:56 | 53.43121 | -4.96727 | 22887 ft | 405 kts | 92° |
| 2026-05-06 18:57 | 53.42980 | -4.91989 | 23478 ft | 408 kts | 92° |
| 2026-05-06 18:57 | 53.42834 | -4.87197 | 23970 ft | 411 kts | 92° |
| 2026-05-06 18:57 | 53.42684 | -4.82449 | 24441 ft | 414 kts | 92° |
| 2026-05-06 18:57 | 53.42520 | -4.77610 | 24911 ft | 416 kts | 92° |
| 2026-05-06 18:58 | 53.42351 | -4.72747 | 25372 ft | 419 kts | 92° |
| 2026-05-06 18:58 | 53.42178 | -4.67820 | 25822 ft | 422 kts | 92° |
| 2026-05-06 18:58 | 53.42004 | -4.62899 | 26275 ft | 424 kts | 92° |
| 2026-05-06 18:58 | 53.41827 | -4.57947 | 26775 ft | 425 kts | 92° |
| 2026-05-06 18:59 | 53.41651 | -4.53070 | 27388 ft | 423 kts | 91° |
| 2026-05-06 18:59 | 53.41472 | -4.48166 | 28047 ft | 420 kts | 91° |
| 2026-05-06 18:59 | 53.41292 | -4.43277 | 28654 ft | 419 kts | 91° |
| 2026-05-06 18:59 | 53.41111 | -4.38388 | 29209 ft | 418 kts | 91° |
| 2026-05-06 19:00 | 53.40931 | -4.33585 | 29758 ft | 417 kts | 91° |
| 2026-05-06 19:00 | 53.40747 | -4.28737 | 30306 ft | 416 kts | 91° |
| 2026-05-06 19:00 | 53.40561 | -4.23891 | 30825 ft | 413 kts | 91° |
| 2026-05-06 19:00 | 53.40375 | -4.19072 | 30986 ft | 417 kts | 91° |
| 2026-05-06 19:01 | 53.40187 | -4.14258 | 31001 ft | 417 kts | 91° |
| 2026-05-06 19:01 | 53.39805 | -4.04641 | 30997 ft | 410 kts | 91° |
| 2026-05-06 19:02 | 53.39419 | -3.95077 | 31014 ft | 412 kts | 91° |
| 2026-05-06 19:02 | 53.39044 | -3.85494 | 31016 ft | 414 kts | 91° |
| 2026-05-06 19:03 | 53.38663 | -3.75844 | 31009 ft | 415 kts | 91° |
| 2026-05-06 19:03 | 53.38199 | -3.66194 | 31006 ft | 416 kts | 97° |
| 2026-05-06 19:04 | 53.36372 | -3.57024 | 31017 ft | 419 kts | 112° |
| 2026-05-06 19:04 | 53.33960 | -3.48112 | 31011 ft | 420 kts | 114° |
| 2026-05-06 19:05 | 53.30600 | -3.40110 | 31020 ft | 422 kts | 130° |
| 2026-05-06 19:05 | 53.26670 | -3.32854 | 31017 ft | 423 kts | 130° |
| 2026-05-06 19:06 | 53.22760 | -3.25547 | 31012 ft | 423 kts | 130° |
| 2026-05-06 19:06 | 53.18857 | -3.18185 | 31024 ft | 422 kts | 130° |
| 2026-05-06 19:07 | 53.14954 | -3.10852 | 31012 ft | 422 kts | 130° |
| 2026-05-06 19:07 | 53.11082 | -3.03599 | 31032 ft | 421 kts | 130° |
| 2026-05-06 19:08 | 53.07182 | -2.96310 | 31018 ft | 421 kts | 130° |
| 2026-05-06 19:08 | 53.03298 | -2.89073 | 31013 ft | 420 kts | 130° |
| 2026-05-06 19:09 | 52.99389 | -2.81812 | 31031 ft | 420 kts | 130° |
| 2026-05-06 19:09 | 52.95512 | -2.74628 | 31021 ft | 420 kts | 131° |
| 2026-05-06 19:10 | 52.91616 | -2.67425 | 31018 ft | 420 kts | 131° |
| 2026-05-06 19:10 | 52.87703 | -2.60212 | 31016 ft | 419 kts | 131° |
| 2026-05-06 19:11 | 52.83802 | -2.53039 | 31015 ft | 419 kts | 131° |
| 2026-05-06 19:11 | 52.79684 | -2.46284 | 31010 ft | 419 kts | 144° |
| 2026-05-06 19:12 | 52.74794 | -2.40985 | 31023 ft | 420 kts | 147° |
| 2026-05-06 19:12 | 52.69920 | -2.35757 | 31014 ft | 419 kts | 147° |
| 2026-05-06 19:13 | 52.65049 | -2.30430 | 31024 ft | 419 kts | 147° |
| 2026-05-06 19:13 | 52.60214 | -2.25108 | 31030 ft | 419 kts | 146° |
| 2026-05-06 19:14 | 52.55354 | -2.19768 | 30706 ft | 424 kts | 147° |
| 2026-05-06 19:14 | 52.52869 | -2.17046 | 30150 ft | 437 kts | 146° |
| 2026-05-06 19:14 | 52.50268 | -2.14200 | 29353 ft | 460 kts | 147° |
| 2026-05-06 19:14 | 52.47554 | -2.11236 | 28512 ft | 469 kts | 147° |
| 2026-05-06 19:15 | 52.44869 | -2.08305 | 27760 ft | 467 kts | 147° |
| 2026-05-06 19:15 | 52.42183 | -2.05380 | 27193 ft | 461 kts | 147° |
| 2026-05-06 19:15 | 52.39527 | -2.02490 | 26605 ft | 455 kts | 147° |
| 2026-05-06 19:15 | 52.36905 | -1.99639 | 26015 ft | 450 kts | 147° |
| 2026-05-06 19:16 | 52.34298 | -1.96811 | 25445 ft | 446 kts | 148° |
| 2026-05-06 19:16 | 52.31721 | -1.94021 | 24873 ft | 442 kts | 148° |
| 2026-05-06 19:16 | 52.29163 | -1.91254 | 24313 ft | 438 kts | 148° |
| 2026-05-06 19:16 | 52.26628 | -1.88517 | 23758 ft | 435 kts | 148° |
| 2026-05-06 19:17 | 52.24109 | -1.85813 | 23139 ft | 431 kts | 148° |
| 2026-05-06 19:17 | 52.21640 | -1.83176 | 22531 ft | 428 kts | 148° |
| 2026-05-06 19:17 | 52.19161 | -1.80533 | 21975 ft | 423 kts | 148° |
| 2026-05-06 19:17 | 52.16705 | -1.77917 | 21422 ft | 418 kts | 148° |
| 2026-05-06 19:18 | 52.14274 | -1.75328 | 20861 ft | 414 kts | 148° |
| 2026-05-06 19:18 | 52.11863 | -1.72763 | 20318 ft | 411 kts | 148° |
| 2026-05-06 19:18 | 52.09518 | -1.70272 | 20019 ft | 403 kts | 148° |
| 2026-05-06 19:18 | 52.07168 | -1.67777 | 19778 ft | 407 kts | 148° |
| 2026-05-06 19:19 | 52.04774 | -1.65240 | 19536 ft | 413 kts | 148° |
| 2026-05-06 19:19 | 52.02348 | -1.62669 | 19273 ft | 413 kts | 148° |
| 2026-05-06 19:19 | 51.99977 | -1.60158 | 19025 ft | 410 kts | 148° |
| 2026-05-06 19:19 | 51.97592 | -1.57637 | 18782 ft | 408 kts | 148° |
| 2026-05-06 19:20 | 51.95204 | -1.55115 | 18545 ft | 407 kts | 148° |
| 2026-05-06 19:20 | 51.92837 | -1.52618 | 18303 ft | 405 kts | 148° |
| 2026-05-06 19:20 | 51.90476 | -1.50131 | 18015 ft | 403 kts | 148° |
| 2026-05-06 19:20 | 51.88133 | -1.47666 | 17487 ft | 399 kts | 148° |
| 2026-05-06 19:21 | 51.85809 | -1.45222 | 16960 ft | 395 kts | 148° |
| 2026-05-06 19:21 | 51.83540 | -1.42840 | 16432 ft | 391 kts | 148° |
| 2026-05-06 19:21 | 51.81267 | -1.40457 | 15910 ft | 388 kts | 148° |
| 2026-05-06 19:21 | 51.79010 | -1.38094 | 15395 ft | 385 kts | 148° |
| 2026-05-06 19:22 | 51.76767 | -1.35750 | 14946 ft | 380 kts | 148° |
| 2026-05-06 19:22 | 51.74566 | -1.33451 | 14773 ft | 372 kts | 148° |
| 2026-05-06 19:22 | 51.72360 | -1.31151 | 14594 ft | 384 kts | 148° |
| 2026-05-06 19:22 | 51.70130 | -1.28828 | 14392 ft | 389 kts | 148° |
| 2026-05-06 19:23 | 51.67864 | -1.26470 | 14181 ft | 387 kts | 148° |
| 2026-05-06 19:23 | 51.65604 | -1.24119 | 13979 ft | 384 kts | 148° |
| 2026-05-06 19:23 | 51.63352 | -1.21779 | 13773 ft | 383 kts | 148° |
| 2026-05-06 19:23 | 51.61116 | -1.19458 | 13554 ft | 381 kts | 147° |
| 2026-05-06 19:24 | 51.58917 | -1.17180 | 13351 ft | 380 kts | 147° |
| 2026-05-06 19:24 | 51.56692 | -1.14876 | 13128 ft | 379 kts | 147° |
| 2026-05-06 19:24 | 51.54472 | -1.12581 | 12940 ft | 378 kts | 147° |
| 2026-05-06 19:24 | 51.52259 | -1.10295 | 12744 ft | 378 kts | 147° |
| 2026-05-06 19:25 | 51.50049 | -1.08014 | 12551 ft | 377 kts | 147° |
| 2026-05-06 19:25 | 51.47836 | -1.05735 | 12351 ft | 377 kts | 147° |
| 2026-05-06 19:25 | 51.45655 | -1.03489 | 12157 ft | 376 kts | 147° |
| 2026-05-06 19:25 | 51.43438 | -1.01210 | 11956 ft | 376 kts | 147° |
| 2026-05-06 19:26 | 51.41259 | -0.98973 | 11763 ft | 375 kts | 147° |
| 2026-05-06 19:26 | 51.39060 | -0.96717 | 11567 ft | 374 kts | 147° |
| 2026-05-06 19:26 | 51.36871 | -0.94473 | 11377 ft | 373 kts | 147° |
| 2026-05-06 19:26 | 51.34686 | -0.92238 | 11175 ft | 372 kts | 147° |
| 2026-05-06 19:27 | 51.32502 | -0.90005 | 10988 ft | 368 kts | 148° |
| 2026-05-06 19:27 | 51.30377 | -0.87835 | 10790 ft | 357 kts | 148° |
| 2026-05-06 19:27 | 51.28330 | -0.85747 | 10604 ft | 347 kts | 148° |
| 2026-05-06 19:27 | 51.26325 | -0.83704 | 10429 ft | 337 kts | 148° |
| 2026-05-06 19:28 | 51.24375 | -0.81719 | 10251 ft | 328 kts | 147° |
| 2026-05-06 19:28 | 51.22476 | -0.79788 | 10087 ft | 319 kts | 147° |
| 2026-05-06 19:28 | 51.20645 | -0.77928 | 10002 ft | 308 kts | 148° |
| 2026-05-06 19:28 | 51.18865 | -0.76122 | 9832 ft | 301 kts | 147° |
| 2026-05-06 19:29 | 51.17112 | -0.74344 | 9632 ft | 295 kts | 147° |
| 2026-05-06 19:29 | 51.15385 | -0.72594 | 9455 ft | 292 kts | 148° |
| 2026-05-06 19:29 | 51.13667 | -0.70855 | 9297 ft | 291 kts | 148° |
| 2026-05-06 19:29 | 51.11960 | -0.69127 | 9140 ft | 291 kts | 147° |
| 2026-05-06 19:30 | 51.10271 | -0.67420 | 8986 ft | 290 kts | 147° |
| 2026-05-06 19:30 | 51.08558 | -0.65692 | 8823 ft | 292 kts | 147° |
| 2026-05-06 19:30 | 51.06838 | -0.63958 | 8680 ft | 292 kts | 148° |
| 2026-05-06 19:30 | 51.05302 | -0.61989 | 8497 ft | 292 kts | 127° |
| 2026-05-06 19:31 | 51.04607 | -0.60172 | 8426 ft | 289 kts | 115° |
| 2026-05-06 19:31 | 51.03728 | -0.57293 | 8267 ft | 289 kts | 115° |
| 2026-05-06 19:31 | 51.01671 | -0.50627 | 7996 ft | 287 kts | 115° |
| 2026-05-06 19:32 | 51.01076 | -0.48722 | 7993 ft | 282 kts | 115° |
| 2026-05-06 19:32 | 51.00217 | -0.45987 | 7980 ft | 270 kts | 115° |
| 2026-05-06 19:32 | 50.99405 | -0.43405 | 7977 ft | 258 kts | 115° |
| 2026-05-06 19:32 | 50.98609 | -0.40879 | 7974 ft | 254 kts | 115° |
| 2026-05-06 19:33 | 50.97822 | -0.38382 | 7964 ft | 252 kts | 115° |
| 2026-05-06 19:33 | 50.97122 | -0.35852 | 7816 ft | 249 kts | 101° |
| 2026-05-06 19:33 | 50.97149 | -0.33190 | 7528 ft | 243 kts | 69° |
| 2026-05-06 19:33 | 50.98016 | -0.30964 | 7169 ft | 237 kts | 39° |
| 2026-05-06 19:34 | 50.99461 | -0.29816 | 6745 ft | 233 kts | 8° |
| 2026-05-06 19:34 | 51.01044 | -0.30082 | 6387 ft | 230 kts | 336° |
| 2026-05-06 19:34 | 51.02268 | -0.31660 | 6019 ft | 228 kts | 304° |
| 2026-05-06 19:34 | 51.02759 | -0.34039 | 5587 ft | 232 kts | 273° |
| 2026-05-06 19:35 | 51.02670 | -0.36557 | 5254 ft | 230 kts | 267° |
| 2026-05-06 19:35 | 51.02506 | -0.39088 | 4875 ft | 230 kts | 266° |
| 2026-05-06 19:35 | 51.02339 | -0.41615 | 4475 ft | 230 kts | 265° |
| 2026-05-06 19:35 | 51.02176 | -0.44150 | 4079 ft | 230 kts | 266° |
| 2026-05-06 19:36 | 51.02033 | -0.46643 | 3917 ft | 219 kts | 273° |
| 2026-05-06 19:36 | 51.02456 | -0.48801 | 3793 ft | 201 kts | 308° |
| 2026-05-06 19:36 | 51.03521 | -0.50049 | 3702 ft | 184 kts | 338° |
| 2026-05-06 19:36 | 51.04713 | -0.50771 | 3407 ft | 183 kts | 340° |
| 2026-05-06 19:37 | 51.05951 | -0.51058 | 3116 ft | 180 kts | 12° |
| 2026-05-06 19:37 | 51.07044 | -0.50061 | 3082 ft | 187 kts | 39° |
| 2026-05-06 19:37 | 51.08013 | -0.48697 | 3020 ft | 187 kts | 40° |
| 2026-05-06 19:37 | 51.08961 | -0.47329 | 3003 ft | 180 kts | 40° |
| 2026-05-06 19:38 | 51.09880 | -0.45999 | 2990 ft | 177 kts | 40° |
| 2026-05-06 19:38 | 51.10787 | -0.44676 | 3000 ft | 177 kts | 41° |
| 2026-05-06 19:38 | 51.11470 | -0.43043 | 3004 ft | 183 kts | 71° |
| 2026-05-06 19:38 | 51.11784 | -0.41019 | 2808 ft | 192 kts | 73° |
| 2026-05-06 19:39 | 51.12091 | -0.38966 | 2552 ft | 188 kts | 75° |
| 2026-05-06 19:39 | 51.12363 | -0.36994 | 2308 ft | 179 kts | 75° |
| 2026-05-06 19:39 | 51.12616 | -0.35117 | 2065 ft | 167 kts | 75° |
| 2026-05-06 19:39 | 51.12857 | -0.33348 | 1842 ft | 161 kts | 75° |
| 2026-05-06 19:40 | 51.13098 | -0.31581 | 1632 ft | 165 kts | 74° |
| 2026-05-06 19:40 | 51.13342 | -0.29786 | 1402 ft | 165 kts | 75° |
| 2026-05-06 19:40 | 51.13576 | -0.28067 | 1192 ft | 153 kts | 76° |
| 2026-05-06 19:40 | 51.13797 | -0.26453 | 976 ft | 147 kts | 74° |
| 2026-05-06 19:41 | 51.14008 | -0.24880 | 765 ft | 145 kts | 76° |
| 2026-05-06 19:41 | 51.14224 | -0.23318 | 567 ft | 144 kts | 76° |
| 2026-05-06 19:41 | 51.14432 | -0.21796 | 381 ft | 139 kts | 78° |
| 2026-05-06 19:41 | 51.14647 | -0.20263 | 220 ft | 143 kts | 77° |
| 2026-05-06 19:42 | 51.14839 | -0.18857 | 202 ft | 110 kts | 78° |
| 2026-05-06 19:42 | 51.14955 | -0.18064 | 206 ft | 37 kts | 69° |
| 2026-05-06 19:42 | 51.15056 | -0.17798 | 213 ft | 18 kts | 50° |
| 2026-05-06 19:42 | 51.15122 | -0.17758 | 204 ft | 8 kts | 358° |
| 2026-05-06 19:43 | 51.15177 | -0.17767 | 208 ft | 8 kts | 354° |
| 2026-05-06 19:43 | 51.15191 | -0.17770 | 210 ft | 1 kts | 353° |
| 2026-05-06 19:43 | 51.15199 | -0.17772 | 207 ft | 1 kts | 350° |
| 2026-05-06 19:44 | 51.15208 | -0.17775 | 211 ft | 3 kts | 348° |
| 2026-05-06 19:45 | 51.15242 | -0.17772 | 209 ft | 7 kts | 21° |
| 2026-05-06 19:45 | 51.15264 | -0.17707 | 203 ft | 7 kts | 75° |
| 2026-05-06 19:45 | 51.15279 | -0.17604 | 203 ft | 12 kts | 77° |
| 2026-05-06 19:45 | 51.15297 | -0.17470 | 205 ft | 12 kts | 80° |
| 2026-05-06 19:46 | 51.15306 | -0.17336 | 211 ft | 12 kts | 84° |
| 2026-05-06 19:46 | 51.15321 | -0.17207 | 209 ft | 12 kts | 77° |
| 2026-05-06 19:46 | 51.15339 | -0.17084 | 204 ft | 11 kts | 78° |
| 2026-05-06 19:46 | 51.15356 | -0.16962 | 203 ft | 11 kts | 77° |
| 2026-05-06 19:47 | 51.15373 | -0.16842 | 205 ft | 12 kts | 77° |
| 2026-05-06 19:47 | 51.15392 | -0.16702 | 208 ft | 14 kts | 77° |
| 2026-05-06 19:47 | 51.15412 | -0.16553 | 205 ft | 14 kts | 82° |
| 2026-05-06 19:47 | 51.15342 | -0.16479 | 207 ft | 13 kts | 168° |
| 2026-05-06 19:48 | 51.15313 | -0.16365 | 203 ft | 13 kts | 79° |
| 2026-05-06 19:48 | 51.15320 | -0.16309 | 207 ft | 3 kts | 78° |
| 2026-05-06 19:48 | 51.15345 | -0.16278 | 211 ft | 7 kts | 14° |
| 2026-05-06 19:48 | 51.15372 | -0.16276 | 205 ft | 0 kts | 357° |